Weather at Milan Malpensa International Airport

Public forecast

Using degrees Celsius for public forecast. Weather courtesy of forecast.io.

Current aviation weather report (METAR) for Milan Malpensa International Airport

2024/05/29 20:20 (retrieved 11 minutes ago)

LIMC 292020Z VRB02KT CAVOK 17/14 Q1011 NOSIG

Aviation forecast (TAF) for Milan Malpensa International Airport

2024/05/29 18:23 (retrieved 2 hours ago)

TAF LIMC 291700Z 2918/3024 VRB06KT 9999 FEW030 PROB40 TEMPO 2920/3003 TSRA TEMPO 3012/3015 TSRA TEMPO 3015/3024 3000 +TSRAGR BKN008